createdAt,value
2019-05-06T00:00:14.009Z,7.67
2019-05-06T00:02:43.567Z,8.17
2019-05-06T00:05:14.314Z,7.10
2019-05-06T00:07:44.538Z,5.53
2019-05-06T00:10:27.617Z,10.40
2019-05-06T00:12:56.680Z,8.17
2019-05-06T00:15:26.453Z,8.13
2019-05-06T00:17:55.195Z,10.20
2019-05-06T00:20:24.339Z,12.10
2019-05-06T00:22:54.821Z,12.97
2019-05-06T00:25:36.877Z,10.10
2019-05-06T00:28:09.466Z,8.43
2019-05-06T00:30:39.702Z,9.20
2019-05-06T00:33:08.111Z,10.03
2019-05-06T00:35:36.560Z,10.53
2019-05-06T00:38:04.941Z,11.40
2019-05-06T00:40:37.600Z,11.77
2019-05-06T00:43:07.650Z,9.70
2019-05-06T00:45:36.128Z,12.13
2019-05-06T00:48:04.920Z,10.10
2019-05-06T00:50:34.853Z,7.57
2019-05-06T00:53:05.085Z,9.60
2019-05-06T00:55:33.872Z,6.97
2019-05-06T00:58:04.096Z,9.00
2019-05-06T01:00:34.488Z,9.93
2019-05-06T01:03:04.297Z,8.70
2019-05-06T01:05:33.789Z,7.03
2019-05-06T01:08:04.083Z,6.40
2019-05-06T01:10:34.408Z,9.60
2019-05-06T01:13:07.411Z,9.00
2019-05-06T01:15:35.897Z,9.87
2019-05-06T01:18:04.943Z,8.60
2019-05-06T01:20:34.018Z,8.63
2019-05-06T01:23:03.775Z,8.70
2019-05-06T01:25:34.463Z,7.40
2019-05-06T01:28:04.283Z,6.30
2019-05-06T01:30:33.686Z,10.93
2019-05-06T01:33:03.951Z,11.97
2019-05-06T01:35:32.489Z,6.87
2019-05-06T01:38:20.988Z,6.73
2019-05-06T01:40:54.647Z,13.90
2019-05-06T01:43:40.082Z,10.27
2019-05-06T01:46:08.575Z,7.13
2019-05-06T01:48:48.985Z,5.40
2019-05-06T01:51:19.417Z,6.50
2019-05-06T01:53:48.795Z,7.07
2019-05-06T01:56:17.629Z,6.47
2019-05-06T01:58:46.502Z,6.60
2019-05-06T02:01:15.035Z,6.87
2019-05-06T02:03:44.230Z,11.30
2019-05-06T02:06:14.072Z,11.03
2019-05-06T02:08:44.843Z,7.03
2019-05-06T02:11:14.872Z,6.83
2019-05-06T02:13:44.216Z,8.17
2019-05-06T02:16:14.542Z,6.20
2019-05-06T02:18:44.899Z,6.43
2019-05-06T02:21:18.464Z,6.43
2019-05-06T02:23:48.533Z,12.00
2019-05-06T02:26:16.988Z,8.13
2019-05-06T02:28:47.034Z,7.50
2019-05-06T02:31:35.377Z,11.63
2019-05-06T02:34:07.874Z,11.03
2019-05-06T02:36:37.928Z,4.80
2019-05-06T02:39:07.170Z,7.20
2019-05-06T02:41:35.682Z,9.77
2019-05-06T02:44:04.165Z,7.27
2019-05-06T02:46:33.928Z,6.77
2019-05-06T02:49:15.827Z,7.00
2019-05-06T02:51:44.436Z,6.70
2019-05-06T02:54:13.570Z,9.70
2019-05-06T02:56:43.508Z,10.20
2019-05-06T02:59:12.896Z,9.27
2019-05-06T03:01:43.248Z,8.23
2019-05-06T03:04:13.201Z,8.83
2019-05-06T03:06:44.531Z,8.63
2019-05-06T03:09:13.458Z,8.83
2019-05-06T03:11:43.867Z,8.33
2019-05-06T03:14:13.988Z,8.93
2019-05-06T03:16:43.950Z,10.73
2019-05-06T03:19:13.449Z,7.50
2019-05-06T03:21:46.486Z,9.63
2019-05-06T03:24:19.424Z,8.83
2019-05-06T03:26:49.491Z,13.40
2019-05-06T03:29:17.877Z,9.17
2019-05-06T03:31:46.691Z,13.67
2019-05-06T03:34:35.241Z,10.80
2019-05-06T03:36:48.381Z,10.03
2019-05-06T03:39:15.676Z,12.70
2019-05-06T03:41:44.097Z,10.93
2019-05-06T03:44:16.318Z,14.10
2019-05-06T03:46:50.307Z,11.20
2019-05-06T03:49:19.382Z,8.90
2019-05-06T03:51:47.789Z,11.80
2019-05-06T03:54:17.966Z,9.37
2019-05-06T03:56:46.921Z,13.27
2019-05-06T03:59:16.868Z,8.23
2019-05-06T04:01:45.281Z,7.50
2019-05-06T04:04:13.736Z,7.90
2019-05-06T04:06:43.713Z,10.23
2019-05-06T04:09:13.252Z,9.80
2019-05-06T04:11:43.523Z,10.73
2019-05-06T04:14:13.912Z,10.97
2019-05-06T04:16:44.479Z,14.00
2019-05-06T04:19:14.670Z,10.83
2019-05-06T04:21:47.695Z,8.67
2019-05-06T04:24:17.882Z,7.83
2019-05-06T04:26:47.955Z,11.27
2019-05-06T04:29:16.511Z,11.13
2019-05-06T04:31:45.109Z,11.87
2019-05-06T04:34:19.167Z,12.77
2019-05-06T04:36:44.314Z,8.90
2019-05-06T04:39:13.380Z,16.00
2019-05-06T04:41:43.263Z,10.50
2019-05-06T04:44:13.847Z,13.97
2019-05-06T04:46:44.366Z,12.20
2019-05-06T04:49:15.055Z,11.20
2019-05-06T04:51:43.212Z,12.90
2019-05-06T04:54:13.432Z,12.77
2019-05-06T04:56:43.753Z,15.07
2019-05-06T04:59:13.960Z,14.80
2019-05-06T05:01:45.675Z,22.30
2019-05-06T05:04:24.536Z,15.10
2019-05-06T05:06:43.481Z,14.30
2019-05-06T05:09:16.967Z,12.13
2019-05-06T05:11:44.972Z,12.67
2019-05-06T05:14:15.108Z,14.00
2019-05-06T05:16:45.295Z,11.77
2019-05-06T05:19:15.222Z,17.50
2019-05-06T05:21:43.832Z,14.30
2019-05-06T05:24:12.478Z,14.30
2019-05-06T05:26:45.119Z,14.17
2019-05-06T05:29:12.394Z,16.67
2019-05-06T05:31:43.546Z,14.00
2019-05-06T05:34:12.740Z,13.67
2019-05-06T05:36:42.620Z,15.10
2019-05-06T05:39:12.497Z,19.20
2019-05-06T05:41:42.917Z,16.87
2019-05-06T05:44:19.213Z,21.50
2019-05-06T05:46:47.611Z,21.53
2019-05-06T05:49:20.163Z,16.73
2019-05-06T05:51:48.061Z,17.03
2019-05-06T05:54:16.547Z,16.13
2019-05-06T05:56:45.108Z,18.30
2019-05-06T05:59:13.573Z,21.53
2019-05-06T06:01:43.424Z,26.00
2019-05-06T06:04:13.002Z,19.10
2019-05-06T06:06:42.368Z,23.97
2019-05-06T06:09:12.701Z,20.70
2019-05-06T06:11:49.418Z,20.53
2019-05-06T06:14:28.911Z,19.43
2019-05-06T06:17:02.493Z,22.00
2019-05-06T06:19:32.930Z,22.93
2019-05-06T06:22:02.981Z,16.23
2019-05-06T06:24:33.337Z,28.93
2019-05-06T06:27:03.079Z,15.93
2019-05-06T06:29:32.343Z,25.47
2019-05-06T06:32:05.511Z,19.23
2019-05-06T06:34:52.137Z,22.80
2019-05-06T06:37:28.640Z,19.20
2019-05-06T06:39:57.796Z,18.33
2019-05-06T06:42:26.448Z,25.20
2019-05-06T06:44:54.890Z,26.00
2019-05-06T06:47:23.407Z,24.63
2019-05-06T06:49:53.471Z,29.83
2019-05-06T06:52:23.051Z,23.87
2019-05-06T06:54:52.700Z,22.53
2019-05-06T06:57:23.040Z,22.53
2019-05-06T07:00:04.134Z,22.30
2019-05-06T07:02:43.239Z,28.10
2019-05-06T07:05:24.450Z,23.83
2019-05-06T07:07:47.294Z,32.73
2019-05-06T07:10:33.065Z,25.47
2019-05-06T07:13:02.945Z,28.50
2019-05-06T07:15:33.583Z,22.50
2019-05-06T07:18:02.512Z,24.90
2019-05-06T07:20:35.440Z,30.37
2019-05-06T07:23:05.550Z,25.50
2019-05-06T07:25:33.966Z,20.80
2019-05-06T07:28:03.021Z,20.90
2019-05-06T07:30:33.084Z,21.60
2019-05-06T07:33:03.605Z,20.83
2019-05-06T07:35:40.782Z,20.77
2019-05-06T07:38:02.455Z,23.77
2019-05-06T07:40:32.659Z,24.80
2019-05-06T07:43:02.958Z,23.53
2019-05-06T07:45:33.062Z,21.50
2019-05-06T07:48:03.710Z,22.50
2019-05-06T07:50:33.228Z,24.70
2019-05-06T07:53:08.356Z,28.67
2019-05-06T07:55:37.834Z,23.73
2019-05-06T07:58:06.489Z,23.80
2019-05-06T08:00:35.159Z,27.03
2019-05-06T08:03:03.640Z,23.17
2019-05-06T08:05:32.594Z,22.70
2019-05-06T08:08:03.469Z,22.23
2019-05-06T08:10:33.238Z,19.50
2019-05-06T08:13:02.708Z,23.50
2019-05-06T08:15:32.652Z,21.37
2019-05-06T08:18:03.316Z,24.57
2019-05-06T08:20:40.101Z,26.30
2019-05-06T08:23:12.607Z,23.00
2019-05-06T08:25:45.694Z,28.70
2019-05-06T08:28:14.168Z,19.90
2019-05-06T08:30:43.268Z,20.30
2019-05-06T08:33:12.896Z,22.70
2019-05-06T08:35:42.542Z,23.83
2019-05-06T08:38:12.206Z,20.17
2019-05-06T08:40:42.871Z,18.70
2019-05-06T08:43:13.119Z,19.80
2019-05-06T08:45:42.089Z,20.30
2019-05-06T08:48:12.850Z,20.03
2019-05-06T08:50:55.111Z,20.13
2019-05-06T08:53:32.931Z,17.90
2019-05-06T08:56:03.006Z,15.97
2019-05-06T08:58:47.886Z,17.83
2019-05-06T09:01:22.474Z,13.00
2019-05-06T09:04:06.327Z,17.43
2019-05-06T09:06:29.316Z,22.40
2019-05-06T09:08:52.171Z,13.30
2019-05-06T09:11:23.695Z,14.07
2019-05-06T09:13:52.120Z,11.90
2019-05-06T09:16:22.317Z,13.00
2019-05-06T09:18:53.230Z,11.83
2019-05-06T09:21:22.620Z,14.40
2019-05-06T09:23:53.081Z,19.47
2019-05-06T09:26:22.999Z,13.47
2019-05-06T09:28:56.024Z,13.97
2019-05-06T09:31:29.074Z,18.77
2019-05-06T09:34:02.724Z,16.77
2019-05-06T09:36:43.605Z,10.70
2019-05-06T09:39:02.302Z,15.70
2019-05-06T09:41:32.493Z,13.40
2019-05-06T09:44:03.073Z,18.67
2019-05-06T09:46:32.191Z,16.83
2019-05-06T09:49:17.328Z,15.53
2019-05-06T09:51:45.726Z,15.17
2019-05-06T09:54:15.925Z,20.50
2019-05-06T09:56:54.872Z,21.57
2019-05-06T09:59:23.387Z,15.60
2019-05-06T10:01:52.838Z,18.30
2019-05-06T10:04:21.491Z,19.93
2019-05-06T10:06:57.313Z,16.93
2019-05-06T10:09:20.198Z,17.27
2019-05-06T10:11:48.689Z,19.23
2019-05-06T10:14:17.208Z,22.70
2019-05-06T10:16:45.726Z,25.43
2019-05-06T10:19:14.200Z,21.63
2019-05-06T10:21:42.929Z,21.60
2019-05-06T10:24:11.512Z,25.27
2019-05-06T10:26:44.709Z,19.10
2019-05-06T10:29:22.292Z,20.63
2019-05-06T10:31:52.567Z,22.80
2019-05-06T10:34:22.181Z,22.97
2019-05-06T10:37:19.712Z,19.20
2019-05-06T10:40:03.489Z,24.20
2019-05-06T10:42:42.886Z,19.60
2019-05-06T10:45:19.784Z,20.57
2019-05-06T10:47:48.202Z,26.77
2019-05-06T10:50:16.702Z,21.23
2019-05-06T10:53:02.973Z,22.00
2019-05-06T10:55:32.457Z,19.00
2019-05-06T10:58:02.676Z,24.97
2019-05-06T11:00:33.187Z,22.20
2019-05-06T11:03:14.809Z,22.03
2019-05-06T11:05:43.268Z,23.90
2019-05-06T11:08:12.089Z,20.40
2019-05-06T11:10:44.104Z,18.73
2019-05-06T11:13:12.822Z,20.90
2019-05-06T11:15:43.107Z,23.80
2019-05-06T11:18:13.570Z,17.90
2019-05-06T11:20:43.744Z,21.70
2019-05-06T11:23:13.918Z,20.33
2019-05-06T11:25:43.221Z,20.80
2019-05-06T11:28:29.997Z,22.37
2019-05-06T11:31:02.499Z,19.00
2019-05-06T11:33:32.907Z,13.90
2019-05-06T11:36:03.271Z,19.40
2019-05-06T11:38:32.228Z,17.97
2019-05-06T11:41:00.883Z,14.40
2019-05-06T11:43:29.312Z,14.10
2019-05-06T11:45:57.712Z,13.53
2019-05-06T11:48:26.125Z,12.80
2019-05-06T11:50:56.194Z,20.00
2019-05-06T11:53:24.603Z,16.53
2019-05-06T11:55:54.813Z,12.50
2019-05-06T11:58:42.478Z,13.17
2019-05-06T12:01:23.923Z,17.90
2019-05-06T12:03:52.337Z,11.33
2019-05-06T12:06:22.722Z,17.53
2019-05-06T12:08:52.465Z,14.23
2019-05-06T12:11:23.462Z,13.47
2019-05-06T12:13:53.200Z,22.23
2019-05-06T12:16:26.162Z,12.97
2019-05-06T12:18:52.920Z,11.63
2019-05-06T12:21:23.251Z,11.00
2019-05-06T12:23:53.736Z,13.50
2019-05-06T12:26:21.930Z,10.77
2019-05-06T12:28:52.913Z,14.40
2019-05-06T12:31:23.097Z,11.90
2019-05-06T12:33:53.021Z,12.40
2019-05-06T12:36:21.954Z,12.10
2019-05-06T12:39:07.894Z,12.63
2019-05-06T12:41:38.015Z,11.80
2019-05-06T12:44:06.409Z,7.80
2019-05-06T12:46:36.586Z,11.13
2019-05-06T12:49:05.830Z,13.13
2019-05-06T12:51:34.317Z,11.43
2019-05-06T12:54:03.492Z,11.50
2019-05-06T12:56:32.321Z,13.77
2019-05-06T12:59:02.056Z,10.27
2019-05-06T13:01:33.465Z,12.23
2019-05-06T13:04:04.143Z,13.73
2019-05-06T13:06:33.473Z,10.17
2019-05-06T13:09:04.923Z,15.73
2019-05-06T13:11:31.619Z,13.70
2019-05-06T13:14:00.998Z,16.17
2019-05-06T13:16:30.253Z,17.43
2019-05-06T13:18:58.674Z,19.10
2019-05-06T13:21:27.053Z,20.70
2019-05-06T13:23:57.137Z,18.40
2019-05-06T13:26:25.550Z,18.13
2019-05-06T13:28:55.651Z,20.70
2019-05-06T13:31:25.552Z,15.27
2019-05-06T13:33:59.133Z,18.73
2019-05-06T13:36:27.561Z,17.37
2019-05-06T13:39:09.438Z,14.90
2019-05-06T13:41:26.222Z,18.60
2019-05-06T13:44:05.260Z,17.93
2019-05-06T13:46:35.427Z,20.40
2019-05-06T13:49:05.524Z,24.07
2019-05-06T13:51:42.909Z,15.67
2019-05-06T13:54:15.448Z,16.00
2019-05-06T13:56:42.511Z,17.27
2019-05-06T13:59:12.839Z,19.03
2019-05-06T14:01:44.049Z,17.10
2019-05-06T14:04:14.479Z,16.57
2019-05-06T14:06:43.383Z,21.47
2019-05-06T14:09:28.013Z,21.53
2019-05-06T14:11:42.139Z,17.93
2019-05-06T14:14:12.581Z,15.27
2019-05-06T14:16:42.623Z,15.30
2019-05-06T14:19:12.986Z,19.10
2019-05-06T14:21:43.153Z,20.13
2019-05-06T14:24:13.301Z,15.40
2019-05-06T14:26:46.117Z,18.03
2019-05-06T14:29:23.403Z,16.30
2019-05-06T14:31:53.652Z,20.17
2019-05-06T14:34:23.033Z,14.20
2019-05-06T14:36:53.386Z,18.17
2019-05-06T14:39:47.474Z,18.50
2019-05-06T14:41:59.422Z,30.13
2019-05-06T14:44:27.896Z,17.20
2019-05-06T14:46:58.035Z,81.33
2019-05-06T14:49:26.469Z,23.53
2019-05-06T14:51:54.884Z,22.90
2019-05-06T14:54:23.334Z,20.77
2019-05-06T14:56:53.512Z,15.93
2019-05-06T14:59:23.407Z,20.30
2019-05-06T15:01:53.612Z,15.47
2019-05-06T15:04:22.993Z,14.90
2019-05-06T15:06:52.928Z,43.47
2019-05-06T15:09:22.603Z,24.47
2019-05-06T15:11:51.287Z,20.07
2019-05-06T15:14:19.695Z,19.43
2019-05-06T15:16:48.126Z,20.30
2019-05-06T15:19:16.609Z,14.63
2019-05-06T15:21:45.118Z,19.43
2019-05-06T15:24:14.619Z,15.33
2019-05-06T15:26:43.107Z,16.10
2019-05-06T15:29:12.695Z,14.40
2019-05-06T15:31:59.366Z,24.07
2019-05-06T15:34:29.442Z,15.83
2019-05-06T15:37:02.228Z,18.97
2019-05-06T15:39:32.195Z,21.67
2019-05-06T15:41:59.942Z,19.90
2019-05-06T15:44:31.647Z,19.63
2019-05-06T15:46:58.902Z,19.37
2019-05-06T15:49:27.336Z,23.53
2019-05-06T15:51:55.833Z,23.10
2019-05-06T15:54:24.276Z,20.10
2019-05-06T15:56:53.370Z,20.40
2019-05-06T15:59:22.922Z,22.90
2019-05-06T16:01:53.158Z,20.70
2019-05-06T16:04:22.921Z,17.53
2019-05-06T16:06:52.982Z,22.00
2019-05-06T16:09:23.437Z,23.30
2019-05-06T16:11:53.443Z,19.87
2019-05-06T16:14:22.955Z,21.70
2019-05-06T16:16:52.744Z,19.43
2019-05-06T16:19:22.826Z,19.20
2019-05-06T16:21:52.380Z,24.83
2019-05-06T16:24:22.758Z,17.37
2019-05-06T16:26:52.699Z,21.17
2019-05-06T16:29:22.850Z,17.80
2019-05-06T16:31:51.914Z,18.47
2019-05-06T16:34:22.664Z,20.27
2019-05-06T16:36:50.626Z,18.30
2019-05-06T16:39:19.025Z,18.43
2019-05-06T16:41:47.447Z,17.83
2019-05-06T16:44:15.932Z,17.80
2019-05-06T16:46:44.346Z,16.13
2019-05-06T16:49:14.206Z,16.20
2019-05-06T16:51:44.205Z,20.17
2019-05-06T16:54:12.839Z,18.60
2019-05-06T16:56:44.645Z,20.60
2019-05-06T16:59:13.099Z,17.33
2019-05-06T17:01:43.181Z,18.07
2019-05-06T17:04:15.991Z,18.90
2019-05-06T17:06:52.295Z,17.40
2019-05-06T17:09:27.046Z,15.57
2019-05-06T17:11:51.310Z,17.60
2019-05-06T17:14:19.829Z,18.67
2019-05-06T17:16:48.281Z,17.60
2019-05-06T17:19:16.749Z,22.77
2019-05-06T17:21:48.170Z,19.03
2019-05-06T17:24:15.314Z,20.17
2019-05-06T17:26:43.797Z,19.13
2019-05-06T17:29:22.869Z,17.97
2019-05-06T17:31:52.930Z,17.10
2019-05-06T17:34:22.970Z,19.47
2019-05-06T17:36:53.676Z,27.40
2019-05-06T17:39:22.661Z,31.53
2019-05-06T17:41:52.199Z,27.33
2019-05-06T17:44:22.843Z,22.40
2019-05-06T17:47:09.475Z,22.90
2019-05-06T17:49:39.062Z,23.70
2019-05-06T17:52:22.298Z,28.53
2019-05-06T17:54:52.826Z,27.63
2019-05-06T17:57:22.382Z,25.40
2019-05-06T17:59:52.785Z,22.40
2019-05-06T18:02:22.942Z,21.03
2019-05-06T18:04:53.247Z,18.87
2019-05-06T18:07:22.274Z,19.57
2019-05-06T18:09:52.200Z,21.90
2019-05-06T18:12:22.602Z,23.73
2019-05-06T18:14:53.149Z,20.33
2019-05-06T18:17:22.011Z,19.53
2019-05-06T18:19:50.727Z,17.57
2019-05-06T18:22:19.259Z,20.60
2019-05-06T18:24:48.059Z,18.87
2019-05-06T18:27:16.834Z,23.73
2019-05-06T18:29:45.350Z,21.67
2019-05-06T18:32:13.764Z,19.23
2019-05-06T18:34:42.267Z,24.20
2019-05-06T18:37:12.750Z,42.77
2019-05-06T18:39:42.518Z,19.70
2019-05-06T18:42:18.998Z,21.57
2019-05-06T18:44:42.705Z,19.70
2019-05-06T18:47:12.228Z,25.13
2019-05-06T18:49:42.614Z,19.60
2019-05-06T18:52:13.285Z,29.20
2019-05-06T18:54:42.890Z,20.60
2019-05-06T18:57:12.982Z,21.50
2019-05-06T18:59:42.481Z,22.87
2019-05-06T19:02:13.216Z,21.90
2019-05-06T19:04:45.706Z,20.23
2019-05-06T19:07:17.003Z,24.50
2019-05-06T19:09:52.389Z,20.40
2019-05-06T19:12:30.278Z,32.57
2019-05-06T19:14:52.600Z,26.47
2019-05-06T19:17:22.537Z,23.17
2019-05-06T19:19:52.048Z,21.20
2019-05-06T19:22:22.377Z,21.40
2019-05-06T19:24:52.056Z,25.27
2019-05-06T19:27:24.672Z,26.23
2019-05-06T19:29:54.363Z,19.07
2019-05-06T19:32:22.560Z,21.27
2019-05-06T19:34:53.009Z,22.10
2019-05-06T19:37:23.326Z,20.77
2019-05-06T19:39:52.469Z,23.60
2019-05-06T19:42:22.452Z,23.53
2019-05-06T19:44:52.786Z,19.00
2019-05-06T19:47:21.197Z,18.80
2019-05-06T19:49:49.772Z,18.33
2019-05-06T19:52:18.202Z,26.33
2019-05-06T19:54:46.722Z,23.30
2019-05-06T19:57:15.993Z,22.77
2019-05-06T19:59:44.616Z,19.80
2019-05-06T20:02:13.204Z,20.30
2019-05-06T20:04:44.334Z,19.77
2019-05-06T20:07:22.721Z,19.80
2019-05-06T20:10:08.625Z,20.50
2019-05-06T20:12:38.660Z,20.43
2019-05-06T20:15:26.140Z,22.63
2019-05-06T20:17:54.555Z,25.07
2019-05-06T20:20:23.043Z,25.43
2019-05-06T20:22:51.458Z,22.40
2019-05-06T20:25:21.921Z,23.10
2019-05-06T20:27:50.116Z,18.53
2019-05-06T20:30:19.105Z,20.13
2019-05-06T20:32:47.524Z,19.90
2019-05-06T20:35:15.990Z,19.60
2019-05-06T20:37:44.411Z,18.97
2019-05-06T20:40:14.747Z,16.60
2019-05-06T20:42:43.204Z,20.10
2019-05-06T20:45:12.895Z,17.57
2019-05-06T20:47:42.914Z,17.20
2019-05-06T20:50:13.254Z,25.80
2019-05-06T20:52:42.515Z,18.60
2019-05-06T20:55:15.217Z,19.40
2019-05-06T20:57:42.905Z,26.47
2019-05-06T21:00:12.855Z,23.87
2019-05-06T21:02:42.603Z,25.63
2019-05-06T21:05:13.863Z,30.83
2019-05-06T21:07:43.234Z,21.23
2019-05-06T21:10:12.713Z,18.90
2019-05-06T21:12:42.251Z,18.97
2019-05-06T21:15:13.315Z,19.87
2019-05-06T21:17:42.004Z,22.30
2019-05-06T21:20:10.857Z,23.60
2019-05-06T21:22:39.268Z,21.53
2019-05-06T21:25:08.502Z,22.50
2019-05-06T21:27:37.110Z,17.43
2019-05-06T21:30:09.098Z,21.93
2019-05-06T21:32:37.669Z,22.23
2019-05-06T21:35:06.262Z,19.77
2019-05-06T21:37:34.664Z,22.53
2019-05-06T21:40:03.203Z,19.80
2019-05-06T21:42:32.545Z,21.00
2019-05-06T21:45:03.168Z,18.60
2019-05-06T21:47:32.548Z,19.57
2019-05-06T21:50:01.082Z,17.73
2019-05-06T21:52:39.312Z,20.80
2019-05-06T21:54:59.666Z,21.20
2019-05-06T21:57:28.095Z,21.00
2019-05-06T21:59:56.492Z,19.50
2019-05-06T22:02:24.964Z,24.50
2019-05-06T22:04:55.657Z,19.63
2019-05-06T22:07:23.569Z,20.10
2019-05-06T22:09:52.771Z,22.57
2019-05-06T22:12:24.350Z,19.93
2019-05-06T22:14:53.027Z,19.63
2019-05-06T22:17:22.625Z,20.53
2019-05-06T22:19:52.455Z,17.93
2019-05-06T22:22:23.481Z,19.87
2019-05-06T22:24:55.658Z,20.27
2019-05-06T22:27:22.642Z,20.03
2019-05-06T22:29:52.222Z,20.87
2019-05-06T22:32:22.938Z,19.47
2019-05-06T22:34:50.911Z,18.30
2019-05-06T22:37:19.409Z,18.57
2019-05-06T22:39:47.837Z,22.93
2019-05-06T22:42:16.280Z,19.97
2019-05-06T22:44:44.658Z,17.77
2019-05-06T22:47:13.152Z,17.73
2019-05-06T22:49:41.608Z,16.40
2019-05-06T22:52:12.437Z,20.03
2019-05-06T22:54:40.325Z,21.93
2019-05-06T22:57:08.807Z,20.73
2019-05-06T22:59:37.210Z,19.57
2019-05-06T23:02:10.079Z,18.20
2019-05-06T23:04:40.205Z,18.40
2019-05-06T23:07:08.642Z,20.63
2019-05-06T23:09:37.063Z,18.23
2019-05-06T23:12:05.617Z,19.93
2019-05-06T23:14:36.897Z,19.13
2019-05-06T23:17:04.348Z,21.00
2019-05-06T23:19:32.781Z,22.33
2019-05-06T23:22:04.020Z,21.37
2019-05-06T23:24:32.198Z,21.60
2019-05-06T23:27:02.403Z,19.60
2019-05-06T23:29:30.921Z,17.33
2019-05-06T23:31:59.510Z,18.40
2019-05-06T23:34:27.907Z,16.60
2019-05-06T23:36:59.364Z,16.07
2019-05-06T23:40:05.905Z,17.23
2019-05-06T23:43:12.610Z,17.27
2019-05-06T23:46:17.068Z,15.17
2019-05-06T23:49:22.316Z,14.67
2019-05-06T23:52:27.031Z,35.17
2019-05-06T23:55:31.945Z,17.83
2019-05-06T23:57:59.188Z,18.30
